Time;durP1;ratioP1;P1;durP2;ratioP2;P2;SDS_P1;SDS_P2;PMS_P1;PMS_P2;Temp;Humidity;BMP_temperature;BMP_pressure;BME280_temperature;BME280_humidity;BME280_pressure;Samples;Min_cycle;Max_cycle;Signal;HPM_P1;HPM_P2
2023/04/13 00:02:52;;;;;;;49.10;34.00;;;;;;;4.74;78.05;97605.39;221976;1298;22570;-81
2023/04/13 00:07:56;;;;;;;39.10;28.90;;;;;;;4.70;78.33;97601.36;221738;1302;22580;-82
2023/04/13 00:13:00;;;;;;;38.20;28.70;;;;;;;4.66;78.40;97596.81;221937;1302;22560;-82
2023/04/13 00:18:05;;;;;;;39.30;27.10;;;;;;;4.59;78.51;97588.13;221996;1296;22557;-81
2023/04/13 00:23:07;;;;;;;37.50;27.50;;;;;;;4.52;78.69;97590.52;222037;1302;22577;-81
2023/04/13 00:28:10;;;;;;;36.80;26.70;;;;;;;4.44;78.74;97583.11;221810;1296;22562;-82
2023/04/13 00:33:13;;;;;;;40.40;28.60;;;;;;;4.35;78.90;97593.98;221938;1302;26034;-82
2023/04/13 00:38:16;;;;;;;45.50;31.20;;;;;;;4.23;78.90;97594.33;221964;1299;22583;-82
2023/04/13 00:43:19;;;;;;;45.10;32.70;;;;;;;4.13;78.94;97596.70;222013;1296;25301;-82
2023/04/13 00:48:22;;;;;;;51.10;36.40;;;;;;;4.04;79.21;97604.18;221887;1300;24839;-79
2023/04/13 00:53:24;;;;;;;55.50;37.50;;;;;;;3.96;79.44;97609.72;221873;1289;22585;-82
2023/04/13 00:58:26;;;;;;;53.60;37.50;;;;;;;3.86;79.55;97603.77;221906;1296;22561;-81
2023/04/13 01:03:29;;;;;;;55.30;39.00;;;;;;;3.79;79.78;97599.42;222145;1295;22572;-80
2023/04/13 01:08:37;;;;;;;58.10;39.20;;;;;;;3.71;79.90;97595.95;221902;1302;24831;-83
2023/04/13 01:13:48;;;;;;;58.90;40.90;;;;;;;3.65;79.91;97599.41;222205;1295;22597;-81
2023/04/13 01:18:52;;;;;;;61.20;41.30;;;;;;;3.60;80.24;97602.12;222014;1301;24327;-82
2023/04/13 01:24:05;;;;;;;60.10;42.40;;;;;;;3.58;80.46;97599.23;221897;1299;22644;-81
2023/04/13 01:29:08;;;;;;;67.70;43.30;;;;;;;3.58;80.46;97597.09;221915;1296;22554;-82
2023/04/13 01:34:11;;;;;;;54.60;37.50;;;;;;;3.59;80.52;97600.29;222080;1299;22580;-81
2023/04/13 01:39:20;;;;;;;51.20;36.60;;;;;;;3.60;80.76;97602.93;221846;1302;25457;-82
2023/04/13 01:44:33;;;;;;;48.50;34.20;;;;;;;3.63;80.94;97602.27;222007;1299;22556;-81
2023/04/13 01:49:36;;;;;;;48.10;34.90;;;;;;;3.62;80.95;97598.27;222017;1301;22553;-81
2023/04/13 01:55:05;;;;;;;52.10;34.20;;;;;;;3.63;81.24;97598.22;222167;1299;22637;-81
2023/04/13 02:00:13;;;;;;;53.40;35.60;;;;;;;3.68;81.35;97603.81;222146;1295;22564;-81
2023/04/13 02:05:16;;;;;;;39.90;28.40;;;;;;;3.76;81.61;97598.00;221839;1296;22563;-81
2023/04/13 02:10:18;;;;;;;47.10;33.60;;;;;;;3.84;81.70;97595.30;222045;1295;22560;-82
2023/04/13 02:15:21;;;;;;;47.10;31.90;;;;;;;3.92;81.72;97590.08;221992;1299;22687;-82
2023/04/13 02:20:23;;;;;;;45.10;32.00;;;;;;;3.99;81.68;97585.42;221907;1301;22577;-82
2023/04/13 02:25:27;;;;;;;44.60;32.80;;;;;;;4.06;82.04;97580.49;222140;1295;22749;-81
2023/04/13 02:30:29;;;;;;;48.80;34.50;;;;;;;4.14;82.02;97576.94;221827;1298;22572;-82
2023/04/13 02:35:31;;;;;;;42.00;31.20;;;;;;;4.22;82.14;97576.75;221986;1302;23007;-84
2023/04/13 02:40:37;;;;;;;45.10;31.70;;;;;;;4.29;82.11;97574.08;222215;1286;22563;-83
2023/04/13 02:45:41;;;;;;;41.70;29.80;;;;;;;4.36;82.20;97576.10;221979;1296;22556;-82
2023/04/13 02:50:45;;;;;;;44.50;32.00;;;;;;;4.43;82.27;97577.55;222004;1296;22575;-82
2023/04/13 02:55:53;;;;;;;44.30;33.00;;;;;;;4.46;82.23;97575.96;221968;1296;22542;-81
2023/04/13 03:00:56;;;;;;;45.90;31.40;;;;;;;4.49;82.16;97579.23;221766;1302;22554;-82
2023/04/13 03:06:00;;;;;;;44.40;32.10;;;;;;;4.53;82.26;97578.42;222010;1301;24311;-81
2023/04/13 03:11:15;;;;;;;43.60;31.70;;;;;;;4.57;82.13;97582.86;222055;1296;22550;-82
2023/04/13 03:16:23;;;;;;;41.40;29.90;;;;;;;4.60;82.18;97578.23;222088;1296;22561;-81
2023/04/13 03:21:26;;;;;;;46.10;32.40;;;;;;;4.67;82.37;97582.91;222107;1299;22605;-81
2023/04/13 03:26:36;;;;;;;41.40;29.40;;;;;;;4.68;82.26;97581.69;221948;1302;22559;-83
2023/04/13 03:31:40;;;;;;;43.50;30.70;;;;;;;4.69;82.19;97585.11;221979;1302;22549;-82
2023/04/13 03:36:43;;;;;;;42.30;31.00;;;;;;;4.70;82.14;97589.73;222200;1299;22606;-82
2023/04/13 03:41:45;;;;;;;45.00;30.80;;;;;;;4.70;82.15;97589.48;222209;1292;22553;-82
2023/04/13 03:46:48;;;;;;;42.20;32.30;;;;;;;4.72;82.23;97589.40;222119;1292;22556;-82
2023/04/13 03:51:57;;;;;;;44.70;33.20;;;;;;;4.68;81.99;97589.05;221929;1298;23051;-82
2023/04/13 03:57:03;;;;;;;39.20;28.30;;;;;;;4.61;82.00;97589.11;221709;1300;22692;-81
2023/04/13 04:02:06;;;;;;;39.40;27.50;;;;;;;4.56;82.01;97584.86;221704;1301;23188;-80
2023/04/13 04:07:12;;;;;;;40.60;28.80;;;;;;;4.51;81.89;97580.60;221817;1296;22556;-81
2023/04/13 04:12:14;;;;;;;35.80;27.20;;;;;;;4.49;82.01;97581.85;222191;1299;22550;-81
2023/04/13 04:17:17;;;;;;;37.30;29.20;;;;;;;4.49;82.06;97584.42;221792;1296;23264;-82
2023/04/13 04:22:20;;;;;;;45.40;32.90;;;;;;;4.51;82.15;97591.94;221891;1296;22568;-82
2023/04/13 04:27:25;;;;;;;48.50;32.30;;;;;;;4.57;82.38;97593.52;221821;1302;22553;-82
2023/04/13 04:32:28;;;;;;;46.70;32.70;;;;;;;4.66;82.51;97596.69;222089;1300;22587;-83
2023/04/13 04:37:36;;;;;;;41.70;30.30;;;;;;;4.76;82.45;97600.91;222249;1302;22549;-82
2023/04/13 04:42:42;;;;;;;38.20;28.10;;;;;;;4.89;82.34;97602.98;222028;1299;22563;-81
2023/04/13 04:47:51;;;;;;;34.70;26.90;;;;;;;5.05;82.10;97603.31;222181;1297;22560;-83
2023/04/13 04:52:56;;;;;;;35.20;26.20;;;;;;;5.21;81.80;97604.71;222247;1299;22518;-81
2023/04/13 04:57:59;;;;;;;37.60;27.00;;;;;;;5.40;81.95;97607.36;222079;1296;23029;-83
2023/04/13 05:03:02;;;;;;;35.10;26.50;;;;;;;5.61;81.79;97604.93;222264;1296;22550;-82
2023/04/13 05:08:04;;;;;;;27.90;22.70;;;;;;;5.82;81.75;97611.05;222254;1298;24684;-83
2023/04/13 05:13:07;;;;;;;38.10;27.40;;;;;;;6.06;81.61;97615.14;222100;1302;22556;-83
2023/04/13 05:18:11;;;;;;;38.80;28.10;;;;;;;6.32;81.59;97620.03;221983;1302;22687;-83
2023/04/13 05:23:14;;;;;;;35.30;27.70;;;;;;;6.55;81.28;97616.98;222041;1301;25331;-82
2023/04/13 05:28:23;;;;;;;37.10;28.20;;;;;;;6.80;81.07;97619.04;222013;1299;22660;-81
2023/04/13 05:33:26;;;;;;;39.00;29.10;;;;;;;7.05;80.76;97622.91;221881;1302;22591;-83
2023/04/13 05:38:30;;;;;;;39.90;30.20;;;;;;;7.30;80.78;97614.74;222068;1292;22610;-82
2023/04/13 05:43:33;;;;;;;42.60;28.10;;;;;;;7.57;80.65;97615.36;221970;1296;22554;-83
2023/04/13 05:48:36;;;;;;;34.70;26.70;;;;;;;7.74;80.10;97620.48;221852;1280;25439;-84
2023/04/13 05:53:40;;;;;;;37.10;27.50;;;;;;;7.84;80.05;97624.42;221777;1299;22572;-83
2023/04/13 05:58:43;;;;;;;38.40;29.10;;;;;;;7.97;79.58;97624.41;221417;1286;24281;-80
2023/04/13 06:03:51;;;;;;;37.80;28.60;;;;;;;8.08;78.89;97621.84;221738;1280;22602;-80
2023/04/13 06:08:55;;;;;;;40.10;31.00;;;;;;;8.16;78.78;97621.80;221465;1282;22556;-78
2023/04/13 06:13:58;;;;;;;39.60;30.50;;;;;;;8.27;78.76;97625.50;221275;1280;139357;-80
2023/04/13 06:19:01;;;;;;;38.90;29.80;;;;;;;8.41;78.28;97624.11;221404;1286;139853;-80
2023/04/13 06:24:06;;;;;;;38.60;28.80;;;;;;;8.60;78.65;97621.92;221655;1283;22574;-81
2023/04/13 06:29:11;;;;;;;37.90;29.10;;;;;;;8.85;78.11;97618.23;221503;1280;138785;-80
2023/04/13 06:34:21;;;;;;;36.80;27.90;;;;;;;9.15;78.35;97619.05;221708;1280;139172;-81
2023/04/13 06:39:23;;;;;;;35.90;25.40;;;;;;;9.49;78.64;97622.19;221537;1279;139120;-77
2023/04/13 06:44:32;;;;;;;34.10;23.90;;;;;;;9.83;77.85;97623.81;221658;1286;139158;-79
2023/04/13 06:49:35;;;;;;;28.10;22.00;;;;;;;10.12;77.35;97626.65;221568;1286;139092;-79
2023/04/13 06:54:37;;;;;;;31.50;22.80;;;;;;;10.35;76.54;97627.06;221422;1293;140500;-79
2023/04/13 06:59:50;;;;;;;29.20;20.90;;;;;;;10.61;76.21;97625.60;221498;1295;22617;-79
2023/04/13 07:04:52;;;;;;;27.70;20.70;;;;;;;10.88;75.60;97624.77;221393;1299;139253;-80
2023/04/13 07:09:56;;;;;;;23.80;18.90;;;;;;;11.25;75.06;97623.42;221484;1296;139085;-80
2023/04/13 07:15:01;;;;;;;21.40;13.60;;;;;;;11.60;74.22;97620.96;221565;1279;139251;-80
2023/04/13 07:20:06;;;;;;;15.50;11.80;;;;;;;11.90;72.77;97620.48;221392;1283;140170;-81
2023/04/13 07:25:09;;;;;;;12.40;10.00;;;;;;;12.05;71.07;97622.15;221198;1286;139402;-79
2023/04/13 07:30:12;;;;;;;13.80;9.70;;;;;;;12.21;70.48;97617.22;221574;1286;24767;-80
2023/04/13 07:35:17;;;;;;;15.00;9.70;;;;;;;12.38;69.58;97616.02;221513;1283;138875;-81
2023/04/13 07:40:20;;;;;;;15.60;9.90;;;;;;;12.51;68.75;97618.51;221865;1292;139068;-84
2023/04/13 07:45:30;;;;;;;13.10;10.40;;;;;;;12.51;67.98;97618.99;221873;1296;139192;-81
2023/04/13 07:50:39;;;;;;;17.40;10.70;;;;;;;12.68;68.47;97628.17;221277;1280;138229;-82
2023/04/13 07:55:44;;;;;;;14.50;10.40;;;;;;;12.89;68.21;97620.64;221105;1289;139191;-84
2023/04/13 08:00:47;;;;;;;17.80;10.10;;;;;;;13.14;67.85;97623.10;221436;1290;139260;-80
2023/04/13 08:05:49;;;;;;;13.60;10.60;;;;;;;13.30;67.12;97623.38;221786;1296;23794;-78
2023/04/13 08:10:52;;;;;;;14.20;9.90;;;;;;;13.40;66.16;97621.13;221484;1282;138237;-79
2023/04/13 08:15:56;;;;;;;13.90;9.80;;;;;;;13.38;65.39;97620.27;221766;1299;138995;-79
2023/04/13 08:20:58;;;;;;;16.40;10.50;;;;;;;13.53;65.32;97626.16;221588;1296;139239;-79
2023/04/13 08:26:04;;;;;;;16.80;9.60;;;;;;;13.66;65.02;97627.05;221592;1299;140178;-79
2023/04/13 08:31:07;;;;;;;14.30;9.30;;;;;;;13.66;63.52;97628.38;221620;1301;139219;-80
2023/04/13 08:36:10;;;;;;;10.80;8.30;;;;;;;13.75;63.25;97626.02;221832;1300;22573;-80
2023/04/13 08:41:16;;;;;;;13.70;9.00;;;;;;;13.92;62.77;97623.45;221592;1281;138658;-80
2023/04/13 08:46:22;;;;;;;13.50;8.50;;;;;;;14.12;62.93;97625.90;221628;1301;138917;-80
2023/04/13 08:51:30;;;;;;;11.90;7.60;;;;;;;14.45;63.03;97623.57;221788;1296;139096;-80
2023/04/13 08:56:33;;;;;;;9.70;6.90;;;;;;;14.69;62.16;97625.43;221719;1299;138737;-79
2023/04/13 09:01:50;;;;;;;11.80;6.20;;;;;;;14.76;61.08;97629.75;221946;1295;138319;-79
2023/04/13 09:06:54;;;;;;;10.10;5.70;;;;;;;15.01;61.15;97635.06;221595;1298;137424;-80
2023/04/13 09:11:58;;;;;;;8.40;5.80;;;;;;;15.36;60.94;97639.80;221656;1287;22550;-85
2023/04/13 09:17:00;;;;;;;8.60;5.60;;;;;;;15.87;61.16;97639.80;221531;1298;138775;-84
2023/04/13 09:22:14;;;;;;;9.50;5.20;;;;;;;16.31;60.31;97634.33;221813;1301;138606;-87
2023/04/13 09:27:22;;;;;;;8.60;4.70;;;;;;;16.53;59.49;97636.35;221867;1299;137713;-85
2023/04/13 09:32:27;;;;;;;8.90;5.10;;;;;;;16.44;58.37;97632.59;221551;1301;137730;-85
2023/04/13 09:37:31;;;;;;;7.90;3.70;;;;;;;16.43;58.51;97629.60;221901;1292;137526;-88
2023/04/13 09:42:36;;;;;;;6.40;4.60;;;;;;;16.42;58.16;97622.08;221842;1301;138481;-84
2023/04/13 09:47:41;;;;;;;7.60;5.10;;;;;;;16.39;58.28;97625.08;221763;1298;22563;-84
2023/04/13 09:52:45;;;;;;;7.30;4.50;;;;;;;16.36;57.89;97621.04;221675;1301;138428;-88
2023/04/13 09:57:47;;;;;;;7.00;4.80;;;;;;;16.32;57.79;97627.20;221907;1301;138643;-85
2023/04/13 10:02:51;;;;;;;5.30;4.40;;;;;;;16.36;57.56;97629.58;221624;1301;138585;-85
2023/04/13 10:07:55;;;;;;;5.30;4.20;;;;;;;16.32;57.05;97625.75;221655;1301;138526;-86
2023/04/13 10:13:03;;;;;;;6.60;4.60;;;;;;;16.31;57.33;97621.98;221824;1302;138574;-84
2023/04/13 10:18:20;;;;;;;5.30;4.00;;;;;;;16.41;57.07;97618.48;221618;1293;22588;-80
2023/04/13 10:23:24;;;;;;;6.00;4.30;;;;;;;16.46;56.54;97616.63;221613;1293;554276;-82
2023/04/13 10:28:27;;;;;;;5.70;4.40;;;;;;;16.56;56.62;97617.48;221749;1296;138909;-75
2023/04/13 10:33:30;;;;;;;7.70;4.10;;;;;;;16.68;56.99;97613.17;221781;1295;138632;-79
2023/04/13 10:38:41;;;;;;;5.20;4.20;;;;;;;16.79;56.29;97615.34;221163;1283;138752;-80
2023/04/13 10:43:44;;;;;;;5.00;4.10;;;;;;;16.83;56.29;97613.13;221399;1301;138759;-78
2023/04/13 10:48:53;;;;;;;6.00;3.80;;;;;;;16.93;56.46;97608.44;221689;1299;138696;-74
2023/04/13 10:54:05;;;;;;;5.60;3.70;;;;;;;17.03;56.63;97608.20;221897;1283;22641;-74
2023/04/13 10:59:08;;;;;;;4.70;4.00;;;;;;;16.92;55.40;97604.17;221608;1301;139083;-74
2023/04/13 11:04:10;;;;;;;6.30;4.80;;;;;;;16.78;55.62;97598.64;221649;1299;139085;-82
2023/04/13 11:09:21;;;;;;;7.80;4.50;;;;;;;16.74;55.87;97605.40;221417;1299;137544;-82
2023/04/13 11:14:23;;;;;;;7.60;4.40;;;;;;;16.72;55.82;97606.83;221408;1296;139179;-78
2023/04/13 11:19:25;;;;;;;5.90;4.10;;;;;;;16.88;56.26;97608.83;221177;1298;138623;-78
2023/04/13 11:24:32;;;;;;;5.20;4.60;;;;;;;17.19;55.94;97609.30;221606;1284;22691;-77
2023/04/13 11:29:35;;;;;;;5.90;4.00;;;;;;;17.61;55.37;97612.70;221906;1300;22557;-78
2023/04/13 11:34:37;;;;;;;5.70;4.50;;;;;;;17.96;54.74;97617.20;221873;1296;138787;-81
2023/04/13 11:39:41;;;;;;;5.70;4.30;;;;;;;18.25;54.33;97621.54;221713;1296;139674;-80
2023/04/13 11:44:45;;;;;;;6.60;4.60;;;;;;;18.43;53.70;97615.98;221743;1301;138880;-80
2023/04/13 11:49:47;;;;;;;6.10;4.00;;;;;;;18.61;53.88;97617.58;221985;1301;138712;-81
2023/04/13 11:54:50;;;;;;;4.40;3.50;;;;;;;18.62;53.26;97617.67;222036;1290;138742;-82
2023/04/13 11:59:53;;;;;;;5.30;3.80;;;;;;;18.43;52.99;97613.10;222098;1301;24493;-82
2023/04/13 12:04:55;;;;;;;4.60;4.00;;;;;;;18.13;52.85;97615.90;221916;1299;138066;-80
2023/04/13 12:09:57;;;;;;;6.40;4.20;;;;;;;17.79;53.12;97618.07;221706;1300;138188;-80
2023/04/13 12:15:07;;;;;;;10.90;8.20;;;;;;;17.46;53.79;97623.04;221664;1299;139246;-80
2023/04/13 12:20:35;;;;;;;9.90;7.90;;;;;;;16.97;54.40;97631.20;221984;1294;138698;-78
2023/04/13 12:25:38;;;;;;;9.60;8.50;;;;;;;16.54;55.55;97637.31;222127;1290;138126;-76
2023/04/13 12:30:40;;;;;;;9.70;8.00;;;;;;;16.11;56.27;97639.20;221800;1301;138258;-82
2023/04/13 12:35:42;;;;;;;8.50;7.20;;;;;;;15.82;57.22;97648.97;221689;1286;22572;-80
2023/04/13 12:40:45;;;;;;;7.60;6.30;;;;;;;15.53;57.86;97653.66;221627;1301;137945;-82
2023/04/13 12:45:48;;;;;;;6.60;5.90;;;;;;;15.22;58.29;97659.04;221468;1300;137735;-81
2023/04/13 12:50:50;;;;;;;6.50;5.20;;;;;;;15.00;59.28;97662.39;221856;1300;138851;-81
2023/04/13 12:55:52;;;;;;;6.30;4.90;;;;;;;14.74;60.22;97667.84;221753;1301;138980;-81
2023/04/13 13:00:54;;;;;;;10.30;7.20;;;;;;;14.48;61.49;97675.75;221624;1302;139073;-82
2023/04/13 13:05:56;;;;;;;10.70;8.90;;;;;;;14.16;62.85;97684.10;222042;1299;22593;-83
2023/04/13 13:10:59;;;;;;;10.40;8.30;;;;;;;13.84;64.30;97687.35;221511;1293;139098;-82
2023/04/13 13:16:02;;;;;;;10.00;8.40;;;;;;;13.54;65.74;97687.36;221082;1302;139101;-78
2023/04/13 13:21:04;;;;;;;8.40;7.50;;;;;;;13.25;66.68;97691.86;221311;1289;138035;-77
2023/04/13 13:26:06;;;;;;;9.30;7.40;;;;;;;13.14;67.65;97694.17;221705;1292;139549;-78
2023/04/13 13:31:26;;;;;;;8.70;7.60;;;;;;;13.01;68.28;97701.39;221543;1289;139000;-76
2023/04/13 13:36:29;;;;;;;11.20;8.70;;;;;;;12.89;68.89;97698.38;221347;1301;22565;-76
2023/04/13 13:41:31;;;;;;;10.60;7.90;;;;;;;12.88;69.66;97695.73;221520;1293;140102;-77
2023/04/13 13:46:33;;;;;;;11.30;9.40;;;;;;;12.85;70.07;97702.23;221336;1292;138429;-78
2023/04/13 13:51:37;;;;;;;10.60;9.60;;;;;;;12.75;70.51;97704.39;221750;1284;139421;-78
2023/04/13 13:56:41;;;;;;;10.60;8.50;;;;;;;12.69;70.96;97706.69;221700;1287;139024;-77
2023/04/13 14:01:43;;;;;;;10.80;9.70;;;;;;;12.70;71.36;97716.73;221240;1282;139063;-76
2023/04/13 14:06:45;;;;;;;11.70;8.90;;;;;;;12.68;71.28;97723.77;221630;1301;139622;-77
2023/04/13 14:11:50;;;;;;;8.70;7.80;;;;;;;12.62;71.24;97731.57;222133;1299;22568;-77
2023/04/13 14:16:52;;;;;;;9.50;7.40;;;;;;;12.57;71.34;97743.32;221635;1278;139044;-76
2023/04/13 14:21:55;;;;;;;8.80;7.70;;;;;;;12.44;71.24;97749.12;221836;1301;138897;-77
2023/04/13 14:26:57;;;;;;;7.50;6.80;;;;;;;12.33;71.49;97752.70;221841;1295;139018;-77
2023/04/13 14:32:00;;;;;;;9.20;7.40;;;;;;;12.24;71.61;97757.28;221960;1284;22638;-77
2023/04/13 14:37:02;;;;;;;8.20;7.40;;;;;;;12.15;71.68;97755.02;221826;1302;24284;-77
2023/04/13 14:42:05;;;;;;;8.30;7.10;;;;;;;12.00;71.89;97753.97;222006;1302;22539;-78
2023/04/13 14:47:09;;;;;;;9.00;8.10;;;;;;;11.86;72.37;97762.77;221828;1302;25457;-77
2023/04/13 14:52:13;;;;;;;8.50;7.50;;;;;;;11.67;72.72;97771.20;221860;1302;22557;-77
2023/04/13 14:57:16;;;;;;;7.70;6.80;;;;;;;11.53;73.09;97774.52;222151;1299;22648;-77
2023/04/13 15:02:18;;;;;;;7.50;6.70;;;;;;;11.34;73.23;97777.05;221842;1302;24280;-77
2023/04/13 15:07:28;;;;;;;7.90;7.00;;;;;;;11.19;73.67;97774.40;222150;1299;22549;-77
2023/04/13 15:12:31;;;;;;;8.70;6.70;;;;;;;10.90;73.82;97777.71;221995;1302;22550;-77
2023/04/13 15:17:34;;;;;;;15.80;13.30;;;;;;;10.62;74.28;97781.06;221991;1301;22557;-77
2023/04/13 15:22:36;;;;;;;9.40;8.50;;;;;;;10.43;75.26;97785.64;221932;1299;24194;-77
2023/04/13 15:27:38;;;;;;;11.50;10.30;;;;;;;10.28;76.01;97791.98;221967;1302;22646;-77
2023/04/13 15:32:40;;;;;;;10.40;9.40;;;;;;;10.14;76.73;97795.95;221828;1302;22649;-75
2023/04/13 15:37:42;;;;;;;12.20;10.20;;;;;;;10.01;76.76;97799.52;221951;1302;22563;-76
2023/04/13 15:42:44;;;;;;;11.50;10.30;;;;;;;9.90;77.46;97808.81;222172;1299;25486;-76
2023/04/13 15:47:46;;;;;;;11.90;10.10;;;;;;;9.82;77.56;97814.75;222030;1302;22557;-76
2023/04/13 15:52:48;;;;;;;11.40;10.20;;;;;;;9.74;77.64;97820.30;222151;1298;23848;-77
2023/04/13 15:57:52;;;;;;;12.40;11.10;;;;;;;9.63;77.85;97824.17;221982;1302;22571;-76
2023/04/13 16:02:55;;;;;;;13.00;11.70;;;;;;;9.51;78.37;97824.98;221980;1302;22550;-75
2023/04/13 16:07:58;;;;;;;11.90;10.70;;;;;;;9.41;78.85;97826.26;222023;1302;22575;-76
2023/04/13 16:13:01;;;;;;;13.10;11.80;;;;;;;9.28;79.20;97829.06;221914;1302;22546;-76
2023/04/13 16:18:03;;;;;;;14.20;12.70;;;;;;;9.16;79.50;97830.84;221968;1302;22644;-77
2023/04/13 16:23:05;;;;;;;16.10;14.50;;;;;;;9.05;79.75;97834.33;221866;1302;22576;-76
2023/04/13 16:28:08;;;;;;;17.20;15.20;;;;;;;8.97;80.18;97834.39;222159;1302;22644;-77
2023/04/13 16:33:11;;;;;;;17.30;15.00;;;;;;;8.90;80.55;97839.58;221936;1297;24281;-77
2023/04/13 16:38:13;;;;;;;17.70;15.40;;;;;;;8.81;80.63;97840.53;222136;1296;22614;-76
2023/04/13 16:43:15;;;;;;;14.10;12.50;;;;;;;8.70;81.52;97842.14;221948;1302;22551;-77
2023/04/13 16:48:19;;;;;;;15.10;12.30;;;;;;;8.57;81.64;97838.98;221851;1302;22606;-77
2023/04/13 16:53:21;;;;;;;14.70;13.10;;;;;;;8.41;81.74;97841.02;222226;1299;22563;-77
2023/04/13 16:58:23;;;;;;;16.60;13.70;;;;;;;8.30;82.09;97846.11;221946;1301;22565;-77
2023/04/13 17:03:26;;;;;;;18.20;14.40;;;;;;;8.21;82.59;97848.48;222133;1302;24781;-77
2023/04/13 17:08:30;;;;;;;18.40;16.00;;;;;;;8.12;82.73;97852.71;221986;1301;22572;-77
2023/04/13 17:13:32;;;;;;;20.40;15.70;;;;;;;8.06;83.24;97855.41;221944;1302;22563;-79
2023/04/13 17:18:37;;;;;;;19.50;16.60;;;;;;;8.01;83.22;97862.52;221861;1302;22591;-77
2023/04/13 17:23:39;;;;;;;22.60;17.60;;;;;;;7.98;83.41;97865.38;222015;1302;23031;-77
2023/04/13 17:28:41;;;;;;;19.80;17.40;;;;;;;7.98;83.63;97870.15;222006;1302;24276;-77
2023/04/13 17:33:44;;;;;;;22.90;19.50;;;;;;;7.96;83.77;97876.48;221979;1301;24328;-76
2023/04/13 17:38:50;;;;;;;22.60;19.30;;;;;;;7.96;83.84;97883.21;221991;1302;22595;-76
2023/04/13 17:43:52;;;;;;;18.80;16.70;;;;;;;7.95;84.19;97885.51;221987;1301;22563;-76
2023/04/13 17:48:57;;;;;;;23.20;18.70;;;;;;;7.91;84.32;97888.75;222122;1296;22562;-75
2023/04/13 17:54:00;;;;;;;23.00;19.30;;;;;;;7.87;84.24;97885.64;222189;1298;22556;-76
2023/04/13 17:59:03;;;;;;;23.60;21.00;;;;;;;7.84;84.67;97896.56;221830;1296;22559;-76
2023/04/13 18:04:05;;;;;;;25.00;21.50;;;;;;;7.83;84.79;97902.19;222151;1299;23160;-77
2023/04/13 18:09:08;;;;;;;27.00;22.80;;;;;;;7.84;85.24;97903.60;222158;1299;22553;-77
2023/04/13 18:14:14;;;;;;;25.30;21.80;;;;;;;7.84;84.85;97909.88;222078;1283;22563;-77
2023/04/13 18:19:17;;;;;;;24.90;19.30;;;;;;;7.83;84.94;97912.21;222005;1302;22557;-76
2023/04/13 18:24:18;;;;;;;25.80;21.00;;;;;;;7.82;85.23;97912.89;222010;1301;22570;-80
2023/04/13 18:29:21;;;;;;;23.90;20.30;;;;;;;7.78;85.14;97915.74;221973;1301;24311;-77
2023/04/13 18:34:23;;;;;;;25.70;21.80;;;;;;;7.77;85.48;97919.61;221524;1302;25334;-79
2023/04/13 18:39:25;;;;;;;23.10;20.60;;;;;;;7.76;85.47;97921.33;221603;1296;25451;-78
2023/04/13 18:44:27;;;;;;;25.70;21.60;;;;;;;7.76;85.56;97922.55;221894;1301;22598;-78
2023/04/13 18:49:30;;;;;;;26.40;22.60;;;;;;;7.76;85.32;97915.67;221997;1302;22578;-79
2023/04/13 18:54:33;;;;;;;28.80;24.50;;;;;;;7.76;85.65;97916.57;221686;1302;22561;-78
2023/04/13 18:59:35;;;;;;;27.80;22.90;;;;;;;7.75;85.91;97921.01;222019;1302;22581;-78
2023/04/13 19:04:37;;;;;;;28.90;23.80;;;;;;;7.75;85.65;97917.89;222188;1299;23383;-78
2023/04/13 19:09:42;;;;;;;32.40;28.10;;;;;;;7.75;85.75;97925.33;221906;1301;22552;-78
2023/04/13 19:14:45;;;;;;;32.40;26.60;;;;;;;7.75;86.24;97925.86;222165;1302;22613;-79
2023/04/13 19:19:48;;;;;;;35.90;28.80;;;;;;;7.74;85.89;97923.30;222129;1302;24315;-82
2023/04/13 19:24:50;;;;;;;34.20;27.80;;;;;;;7.75;86.00;97922.59;222180;1296;22545;-81
2023/04/13 19:29:53;;;;;;;28.30;23.50;;;;;;;7.77;86.21;97923.48;221863;1302;22550;-79
2023/04/13 19:34:56;;;;;;;28.60;24.50;;;;;;;7.76;86.15;97927.29;221847;1298;22655;-78
2023/04/13 19:39:58;;;;;;;30.70;24.80;;;;;;;7.75;86.25;97923.15;222157;1296;22584;-78
2023/04/13 19:45:00;;;;;;;31.10;25.00;;;;;;;7.76;86.73;97929.95;221989;1302;22549;-77
2023/04/13 19:50:04;;;;;;;36.60;27.90;;;;;;;7.75;86.34;97931.56;222187;1302;22601;-77
2023/04/13 19:55:09;;;;;;;35.90;28.00;;;;;;;7.77;86.71;97932.52;221849;1302;22566;-77
2023/04/13 20:00:19;;;;;;;35.10;27.50;;;;;;;7.80;87.06;97924.13;222004;1302;22585;-76
2023/04/13 20:05:23;;;;;;;34.20;27.10;;;;;;;7.82;86.96;97925.48;221980;1302;22549;-78
2023/04/13 20:10:28;;;;;;;38.40;29.30;;;;;;;7.83;86.84;97922.25;222085;1296;22567;-77
2023/04/13 20:15:32;;;;;;;40.10;29.70;;;;;;;7.83;86.78;97922.53;222000;1302;22580;-76
2023/04/13 20:20:36;;;;;;;42.60;30.40;;;;;;;7.84;87.24;97922.26;222044;1296;25486;-76
2023/04/13 20:25:38;;;;;;;37.00;28.40;;;;;;;7.86;87.22;97920.66;222215;1302;22569;-76
2023/04/13 20:30:41;;;;;;;40.20;30.00;;;;;;;7.86;87.26;97922.75;222104;1296;22571;-76
2023/04/13 20:35:43;;;;;;;37.50;28.80;;;;;;;7.88;86.90;97925.83;222036;1301;22548;-77
2023/04/13 20:40:47;;;;;;;39.40;29.20;;;;;;;7.87;87.29;97929.95;222036;1302;22606;-76
2023/04/13 20:45:50;;;;;;;41.20;30.80;;;;;;;7.87;87.33;97926.91;222230;1299;22546;-76
2023/04/13 20:50:52;;;;;;;41.10;30.50;;;;;;;7.89;87.39;97930.36;222050;1302;22564;-76
2023/04/13 20:55:55;;;;;;;40.10;29.50;;;;;;;7.92;87.36;97932.83;221873;1298;22663;-76
2023/04/13 21:00:58;;;;;;;40.20;30.10;;;;;;;7.94;87.46;97931.38;221973;1302;22552;-76
2023/04/13 21:06:00;;;;;;;39.40;29.40;;;;;;;7.96;87.35;97933.05;222183;1296;22568;-76
2023/04/13 21:11:04;;;;;;;41.60;29.40;;;;;;;7.95;87.34;97928.56;222014;1301;22556;-76
2023/04/13 21:16:12;;;;;;;43.20;30.60;;;;;;;7.96;87.82;97924.27;222039;1302;22563;-77
2023/04/13 21:21:15;;;;;;;47.70;32.40;;;;;;;7.95;87.62;97922.77;222195;1299;22570;-77
2023/04/13 21:26:17;;;;;;;41.30;29.30;;;;;;;7.98;87.82;97917.91;221984;1302;25360;-76
2023/04/13 21:31:19;;;;;;;40.40;28.60;;;;;;;7.97;87.76;97911.67;222041;1302;25438;-77
2023/04/13 21:36:21;;;;;;;35.70;25.40;;;;;;;7.98;87.89;97901.71;221997;1296;22705;-76
2023/04/13 21:41:27;;;;;;;39.10;26.50;;;;;;;7.97;87.81;97898.55;221844;1302;22741;-77
2023/04/13 21:46:31;;;;;;;38.20;24.60;;;;;;;7.97;87.97;97896.20;222225;1298;23365;-76
2023/04/13 21:51:35;;;;;;;32.10;22.60;;;;;;;7.94;87.54;97894.00;222195;1299;23866;-77
2023/04/13 21:56:37;;;;;;;32.30;22.60;;;;;;;7.94;87.87;97894.56;222000;1301;22575;-77
2023/04/13 22:01:39;;;;;;;33.10;21.40;;;;;;;7.94;87.73;97892.29;222015;1301;22586;-76
2023/04/13 22:06:41;;;;;;;35.40;22.50;;;;;;;7.92;87.75;97887.91;222004;1301;22545;-77
2023/04/13 22:11:43;;;;;;;31.30;20.60;;;;;;;7.93;88.13;97890.66;222014;1296;22596;-77
2023/04/13 22:16:45;;;;;;;35.00;22.40;;;;;;;7.89;87.51;97892.14;222036;1301;22562;-77
2023/04/13 22:21:50;;;;;;;31.50;21.00;;;;;;;7.88;87.81;97882.86;221703;1296;744081;-77
2023/04/13 22:26:51;;;;;;;37.10;22.50;;;;;;;7.83;87.99;97879.09;222196;1302;22575;-77
2023/04/13 22:31:54;;;;;;;38.30;22.00;;;;;;;7.80;88.00;97876.59;221999;1302;22557;-77
2023/04/13 22:36:56;;;;;;;37.80;23.10;;;;;;;7.77;88.04;97870.54;221995;1301;22552;-76
2023/04/13 22:41:58;;;;;;;37.60;22.70;;;;;;;7.73;87.64;97868.33;222096;1302;22564;-77
2023/04/13 22:47:01;;;;;;;38.90;22.20;;;;;;;7.71;87.85;97860.33;222006;1299;22557;-77
2023/04/13 22:52:04;;;;;;;41.00;22.50;;;;;;;7.70;88.21;97850.20;222230;1302;22556;-76
2023/04/13 22:57:06;;;;;;;29.00;16.60;;;;;;;7.69;88.13;97846.96;222074;1302;22572;-76
2023/04/13 23:02:08;;;;;;;51.40;24.80;;;;;;;7.67;87.74;97840.92;222031;1302;22545;-76
2023/04/13 23:07:11;;;;;;;66.80;29.70;;;;;;;7.69;88.22;97842.76;221829;1302;25635;-75
2023/04/13 23:12:14;;;;;;;61.20;29.10;;;;;;;7.74;88.41;97839.93;222147;1302;22559;-75
2023/04/13 23:17:17;;;;;;;76.80;33.20;;;;;;;7.76;88.51;97838.25;222357;1302;22556;-75